createdAt,value
2019-06-08T00:00:35.817Z,993.58
2019-06-08T00:02:38.669Z,993.62
2019-06-08T00:04:41.477Z,993.64
2019-06-08T00:06:44.300Z,993.69
2019-06-08T00:08:47.114Z,993.7
2019-06-08T00:10:49.846Z,993.67
2019-06-08T00:12:52.670Z,993.67
2019-06-08T00:14:55.465Z,993.75
2019-06-08T00:16:58.221Z,993.78
2019-06-08T00:19:01.099Z,993.86
2019-06-08T00:21:03.916Z,993.87
2019-06-08T00:23:06.701Z,993.9
2019-06-08T00:25:09.451Z,993.93
2019-06-08T00:27:12.206Z,993.98
2019-06-08T00:29:16.505Z,994.04
2019-06-08T00:31:21.961Z,994.04
2019-06-08T00:33:25.362Z,994.04
2019-06-08T00:35:28.177Z,994.04
2019-06-08T00:37:30.997Z,994.01
2019-06-08T00:39:33.807Z,994.05
2019-06-08T00:41:36.542Z,994.07
2019-06-08T00:43:39.407Z,994.03
2019-06-08T00:45:42.175Z,993.95
2019-06-08T00:47:48.752Z,993.99
2019-06-08T00:49:51.585Z,993.98
2019-06-08T00:51:54.380Z,993.99
2019-06-08T00:53:57.234Z,994.05
2019-06-08T00:55:59.957Z,994.06
2019-06-08T00:58:02.668Z,994.08
2019-06-08T01:00:11.981Z,994.11
2019-06-08T01:02:14.886Z,994.16
2019-06-08T01:04:19.123Z,994.16
2019-06-08T01:06:23.495Z,994.23
2019-06-08T01:08:27.875Z,994.24
2019-06-08T01:10:30.742Z,994.21
2019-06-08T01:12:33.586Z,994.23
2019-06-08T01:14:36.441Z,994.26
2019-06-08T01:16:39.240Z,994.25
2019-06-08T01:18:42.069Z,994.26
2019-06-08T01:20:44.928Z,994.32
2019-06-08T01:22:47.753Z,994.31
2019-06-08T01:24:50.560Z,994.27
2019-06-08T01:26:53.474Z,994.3
2019-06-08T01:28:56.213Z,994.37
2019-06-08T01:30:58.990Z,994.36
2019-06-08T01:33:01.838Z,994.34
2019-06-08T01:35:04.721Z,994.36
2019-06-08T01:37:07.540Z,994.35
2019-06-08T01:39:10.330Z,994.32
2019-06-08T01:41:13.142Z,994.33
2019-06-08T01:43:15.877Z,994.32
2019-06-08T01:45:18.759Z,994.27
2019-06-08T01:47:24.509Z,994.35
2019-06-08T01:49:28.651Z,994.38
2019-06-08T01:51:32.514Z,994.36
2019-06-08T01:53:35.556Z,994.34
2019-06-08T01:55:38.438Z,994.33
2019-06-08T01:57:41.188Z,994.39
2019-06-08T01:59:43.918Z,994.46
2019-06-08T02:01:46.696Z,994.45
2019-06-08T02:03:49.510Z,994.47
2019-06-08T02:05:52.337Z,994.53
2019-06-08T02:07:55.281Z,994.63
2019-06-08T02:09:58.147Z,994.68
2019-06-08T02:12:01.008Z,994.71
2019-06-08T02:14:03.836Z,994.7
2019-06-08T02:16:06.613Z,994.78
2019-06-08T02:18:09.477Z,994.72
2019-06-08T02:20:12.290Z,994.76
2019-06-08T02:22:15.247Z,994.81
2019-06-08T02:24:18.096Z,994.79
2019-06-08T02:26:20.998Z,994.85
2019-06-08T02:28:23.828Z,994.97
2019-06-08T02:30:34.000Z,995.02
2019-06-08T02:32:40.832Z,994.96
2019-06-08T02:34:43.654Z,995.04
2019-06-08T02:36:46.474Z,995.09
2019-06-08T02:38:49.269Z,995.17
2019-06-08T02:40:52.002Z,995.26
2019-06-08T02:42:54.859Z,995.26
2019-06-08T02:44:57.635Z,995.31
2019-06-08T02:47:00.476Z,995.28
2019-06-08T02:49:05.590Z,995.35
2019-06-08T02:51:08.443Z,995.35
2019-06-08T02:53:11.265Z,995.33
2019-06-08T02:55:14.155Z,995.4
2019-06-08T02:57:16.996Z,995.43
2019-06-08T02:59:19.756Z,995.44
2019-06-08T03:01:22.542Z,995.51
2019-06-08T03:03:25.379Z,995.5
2019-06-08T03:05:29.703Z,995.49
2019-06-08T03:07:34.593Z,995.49
2019-06-08T03:09:40.833Z,995.5
2019-06-08T03:11:43.903Z,995.46
2019-06-08T03:13:46.687Z,995.51
2019-06-08T03:15:49.424Z,995.48
2019-06-08T03:17:52.168Z,995.51
2019-06-08T03:19:55.037Z,995.49
2019-06-08T03:21:57.866Z,995.46
2019-06-08T03:24:00.761Z,995.46
2019-06-08T03:26:03.585Z,995.48
2019-06-08T03:28:06.401Z,995.52
2019-06-08T03:30:20.252Z,995.53
2019-06-08T03:32:23.086Z,995.64
2019-06-08T03:34:25.980Z,995.67
2019-06-08T03:36:28.814Z,995.71
2019-06-08T03:38:31.638Z,995.72
2019-06-08T03:40:38.007Z,995.74
2019-06-08T03:42:41.012Z,995.8
2019-06-08T03:44:45.588Z,995.9
2019-06-08T03:46:48.354Z,995.98
2019-06-08T03:48:51.145Z,996.06
2019-06-08T03:50:53.887Z,996.18
2019-06-08T03:52:56.665Z,996.21
2019-06-08T03:54:59.570Z,996.32
2019-06-08T03:57:02.365Z,996.36
2019-06-08T03:59:05.223Z,996.45
2019-06-08T04:01:08.004Z,996.5
2019-06-08T04:03:10.812Z,996.53
2019-06-08T04:05:13.660Z,996.59
2019-06-08T04:07:16.455Z,996.6
2019-06-08T04:09:19.301Z,996.65
2019-06-08T04:11:22.106Z,996.7
2019-06-08T04:13:25.085Z,996.76
2019-06-08T04:15:27.955Z,996.84
2019-06-08T04:17:30.788Z,996.8
2019-06-08T04:19:33.575Z,996.89
2019-06-08T04:21:38.161Z,996.87
2019-06-08T04:23:47.038Z,996.92
2019-06-08T04:25:51.224Z,996.93
2019-06-08T04:27:54.026Z,997.01
2019-06-08T04:29:56.906Z,996.98
2019-06-08T04:31:59.760Z,997
2019-06-08T04:34:02.587Z,997.08
2019-06-08T04:36:05.403Z,997.15
2019-06-08T04:38:08.203Z,997.1
2019-06-08T04:40:11.110Z,997.18
2019-06-08T04:42:13.881Z,997.13
2019-06-08T04:44:16.760Z,997.17
2019-06-08T04:46:19.616Z,997.21
2019-06-08T04:48:22.508Z,997.18
2019-06-08T04:50:25.391Z,997.23
2019-06-08T04:52:28.141Z,997.21
2019-06-08T04:54:30.951Z,997.18
2019-06-08T04:56:33.777Z,997.24
2019-06-08T04:58:36.611Z,997.24
2019-06-08T05:00:45.704Z,997.24
2019-06-08T05:02:51.791Z,997.22
2019-06-08T05:04:54.772Z,997.28
2019-06-08T05:06:57.592Z,997.3
2019-06-08T05:09:00.429Z,997.32
2019-06-08T05:11:03.358Z,997.37
2019-06-08T05:13:06.182Z,997.34
2019-06-08T05:15:09.040Z,997.38
2019-06-08T05:17:11.867Z,997.36
2019-06-08T05:19:14.699Z,997.39
2019-06-08T05:21:17.631Z,997.39
2019-06-08T05:23:20.416Z,997.46
2019-06-08T05:25:23.212Z,997.47
2019-06-08T05:27:25.977Z,997.42
2019-06-08T05:29:28.771Z,997.46
2019-06-08T05:31:31.654Z,997.44
2019-06-08T05:33:34.979Z,997.47
2019-06-08T05:35:39.279Z,997.45
2019-06-08T05:37:45.504Z,997.49
2019-06-08T05:39:49.785Z,997.56
2019-06-08T05:41:52.704Z,997.58
2019-06-08T05:43:55.435Z,997.67
2019-06-08T05:45:58.279Z,997.65
2019-06-08T05:48:01.060Z,997.64
2019-06-08T05:50:03.832Z,997.64
2019-06-08T05:52:06.720Z,997.69
2019-06-08T05:54:09.524Z,997.74
2019-06-08T05:56:12.410Z,997.83
2019-06-08T05:58:15.256Z,997.85
2019-06-08T06:00:18.076Z,997.84
2019-06-08T06:02:20.968Z,997.95
2019-06-08T06:04:23.779Z,998
2019-06-08T06:06:26.559Z,998.04
2019-06-08T06:08:29.402Z,998.09
2019-06-08T06:10:32.141Z,998.07
2019-06-08T06:12:34.988Z,998.12
2019-06-08T06:14:37.793Z,998.12
2019-06-08T06:16:41.406Z,998.14
2019-06-08T06:18:45.437Z,998.22
2019-06-08T06:20:49.624Z,998.2
2019-06-08T06:22:53.151Z,998.26
2019-06-08T06:24:55.925Z,998.25
2019-06-08T06:26:58.798Z,998.35
2019-06-08T06:29:01.633Z,998.35
2019-06-08T06:31:04.565Z,998.4
2019-06-08T06:33:07.389Z,998.45
2019-06-08T06:35:10.254Z,998.46
2019-06-08T06:37:13.037Z,998.47
2019-06-08T06:39:15.898Z,998.54
2019-06-08T06:41:18.716Z,998.59
2019-06-08T06:43:21.501Z,998.52
2019-06-08T06:45:24.235Z,998.58
2019-06-08T06:47:27.039Z,998.56
2019-06-08T06:49:29.812Z,998.55
2019-06-08T06:51:34.551Z,998.63
2019-06-08T06:53:37.283Z,998.62
2019-06-08T06:55:40.212Z,998.65
2019-06-08T06:57:45.329Z,998.62
2019-06-08T06:59:49.494Z,998.72
2019-06-08T07:01:58.062Z,998.65
2019-06-08T07:04:00.827Z,998.7
2019-06-08T07:06:03.637Z,998.72
2019-06-08T07:08:06.438Z,998.73
2019-06-08T07:10:09.273Z,998.75
2019-06-08T07:12:12.163Z,998.77
2019-06-08T07:14:14.898Z,998.85
2019-06-08T07:16:19.859Z,998.9
2019-06-08T07:18:22.621Z,998.84
2019-06-08T07:20:25.367Z,998.95
2019-06-08T07:22:28.168Z,998.98
2019-06-08T07:24:30.918Z,998.94
2019-06-08T07:26:33.780Z,998.98
2019-06-08T07:28:36.550Z,999.01
2019-06-08T07:30:39.344Z,998.97
2019-06-08T07:32:42.153Z,999
2019-06-08T07:34:44.908Z,999.07
2019-06-08T07:36:51.197Z,999
2019-06-08T07:38:54.052Z,999.05
2019-06-08T07:41:02.075Z,999.11
2019-06-08T07:43:05.024Z,999.1
2019-06-08T07:45:07.832Z,999.14
2019-06-08T07:47:10.706Z,999.18
2019-06-08T07:49:13.533Z,999.24
2019-06-08T07:51:16.411Z,999.27
2019-06-08T07:53:19.268Z,999.26
2019-06-08T07:55:23.399Z,999.31
2019-06-08T07:57:26.215Z,999.29
2019-06-08T07:59:29.095Z,999.36
2019-06-08T08:01:37.067Z,999.4
2019-06-08T08:03:39.935Z,999.45
2019-06-08T08:05:42.748Z,999.46
2019-06-08T08:07:45.606Z,999.5
2019-06-08T08:09:50.468Z,999.45
2019-06-08T08:11:53.464Z,999.45
2019-06-08T08:13:59.291Z,999.43
2019-06-08T08:16:02.105Z,999.39
2019-06-08T08:18:04.955Z,999.41
2019-06-08T08:20:07.767Z,999.38
2019-06-08T08:22:29.444Z,999.44
2019-06-08T08:24:32.356Z,999.41
2019-06-08T08:26:35.349Z,999.46
2019-06-08T08:28:38.309Z,999.51
2019-06-08T08:30:41.158Z,999.56
2019-06-08T08:32:44.086Z,999.6
2019-06-08T08:34:50.336Z,999.6
2019-06-08T08:36:54.149Z,999.62
2019-06-08T08:39:02.714Z,999.69
2019-06-08T08:41:11.341Z,999.73
2019-06-08T08:43:14.233Z,999.79
2019-06-08T08:45:18.836Z,999.76
2019-06-08T08:47:21.640Z,999.81
2019-06-08T08:49:24.492Z,999.9
2019-06-08T08:51:28.479Z,999.91
2019-06-08T08:53:31.324Z,999.92
2019-06-08T08:55:34.053Z,999.98
2019-06-08T08:57:42.087Z,999.93
2019-06-08T08:59:47.214Z,999.93
2019-06-08T09:01:53.183Z,999.91
2019-06-08T09:04:05.371Z,999.91
2019-06-08T09:06:09.229Z,999.94
2019-06-08T09:08:12.030Z,999.93
2019-06-08T09:10:14.784Z,999.91
2019-06-08T09:12:18.936Z,999.95
2019-06-08T09:14:21.747Z,999.97
2019-06-08T09:16:24.494Z,999.94
2019-06-08T09:18:29.237Z,999.93
2019-06-08T09:20:31.999Z,999.91
2019-06-08T09:23:10.450Z,999.97
2019-06-08T09:25:18.494Z,1000.02
2019-06-08T09:27:21.348Z,1000.02
2019-06-08T09:29:24.168Z,1000.01
2019-06-08T09:31:31.357Z,1000.06
2019-06-08T09:33:34.167Z,1000.08
2019-06-08T09:35:38.464Z,1000.16
2019-06-08T09:37:41.284Z,1000.23
2019-06-08T09:39:44.167Z,1000.38
2019-06-08T09:41:48.532Z,1000.36
2019-06-08T09:43:53.036Z,1000.41
2019-06-08T09:46:05.471Z,1000.42
2019-06-08T09:48:09.940Z,1000.49
2019-06-08T09:50:12.907Z,1000.54
2019-06-08T09:52:21.867Z,1000.51
2019-06-08T09:54:24.844Z,1000.55
2019-06-08T09:56:28.869Z,1000.58
2019-06-08T09:58:31.600Z,1000.65
2019-06-08T10:00:34.461Z,1000.69
2019-06-08T10:02:37.266Z,1000.7
2019-06-08T10:04:40.141Z,1000.78
2019-06-08T10:06:42.908Z,1000.81
2019-06-08T10:08:48.441Z,1000.86
2019-06-08T10:10:51.311Z,1000.88
2019-06-08T10:13:01.569Z,1000.86
2019-06-08T10:15:08.718Z,1000.86
2019-06-08T10:17:11.500Z,1000.85
2019-06-08T10:19:14.265Z,1000.9
2019-06-08T10:21:21.577Z,1000.93
2019-06-08T10:23:34.989Z,1000.91
2019-06-08T10:25:39.166Z,1000.95
2019-06-08T10:27:42.055Z,1000.99
2019-06-08T10:29:44.936Z,1001.02
2019-06-08T10:31:48.954Z,1001.01
2019-06-08T10:33:51.724Z,1000.98
2019-06-08T10:35:59.066Z,1000.97
2019-06-08T10:38:12.305Z,1001
2019-06-08T10:40:15.151Z,1001.04
2019-06-08T10:42:18.624Z,1001.12
2019-06-08T10:44:21.446Z,1001.2
2019-06-08T10:46:24.248Z,1001.25
2019-06-08T10:48:28.161Z,1001.28
2019-06-08T10:50:31.044Z,1001.27
2019-06-08T10:52:33.792Z,1001.21
2019-06-08T10:54:38.455Z,1001.21
2019-06-08T10:56:41.358Z,1001.18
2019-06-08T10:58:44.110Z,1001.22
2019-06-08T11:00:48.651Z,1001.21
2019-06-08T11:02:51.425Z,1001.27
2019-06-08T11:04:54.194Z,1001.22
2019-06-08T11:07:13.661Z,1001.27
2019-06-08T11:09:19.845Z,1001.27
2019-06-08T11:11:22.705Z,1001.32
2019-06-08T11:13:27.737Z,1001.39
2019-06-08T11:15:31.028Z,1001.44
2019-06-08T11:17:33.990Z,1001.41
2019-06-08T11:19:38.283Z,1001.38
2019-06-08T11:21:41.187Z,1001.49
2019-06-08T11:23:44.021Z,1001.51
2019-06-08T11:25:49.345Z,1001.59
2019-06-08T11:27:52.169Z,1001.62
2019-06-08T11:29:57.087Z,1001.63
2019-06-08T11:32:03.934Z,1001.55
2019-06-08T11:34:10.557Z,1001.55
2019-06-08T11:36:18.560Z,1001.45
2019-06-08T11:38:21.584Z,1001.52
2019-06-08T11:40:24.441Z,1001.52
2019-06-08T11:42:29.215Z,1001.56
2019-06-08T11:44:32.035Z,1001.55
2019-06-08T11:46:34.911Z,1001.6
2019-06-08T11:48:42.074Z,1001.7
2019-06-08T11:50:44.954Z,1001.68
2019-06-08T11:52:49.901Z,1001.75
2019-06-08T11:54:52.732Z,1001.75
2019-06-08T11:56:58.040Z,1001.79
2019-06-08T11:59:01.614Z,1001.81
2019-06-08T12:01:15.225Z,1001.78
2019-06-08T12:03:18.191Z,1001.79
2019-06-08T12:05:20.913Z,1001.76
2019-06-08T12:07:23.765Z,1001.75
2019-06-08T12:09:29.112Z,1001.75
2019-06-08T12:11:31.818Z,1001.75
2019-06-08T12:13:34.651Z,1001.74
2019-06-08T12:15:39.123Z,1001.8
2019-06-08T12:17:42.012Z,1001.86
2019-06-08T12:19:44.876Z,1001.89
2019-06-08T12:21:50.404Z,1001.82
2019-06-08T12:23:53.557Z,1001.8
2019-06-08T12:25:56.394Z,1001.77
2019-06-08T12:27:59.275Z,1001.8
2019-06-08T12:30:25.780Z,1001.8
2019-06-08T12:32:28.820Z,1001.84
2019-06-08T12:34:31.676Z,1001.88
2019-06-08T12:36:34.470Z,1001.84
2019-06-08T12:38:38.593Z,1001.87
2019-06-08T12:40:42.198Z,1001.95
2019-06-08T12:42:45.125Z,1001.95
2019-06-08T12:44:48.162Z,1001.91
2019-06-08T12:46:51.132Z,1001.91
2019-06-08T12:48:54.021Z,1001.9
2019-06-08T12:50:56.772Z,1001.92
2019-06-08T12:52:59.578Z,1001.86
2019-06-08T12:55:22.227Z,1001.84
2019-06-08T12:57:29.229Z,1001.88
2019-06-08T12:59:32.100Z,1001.91
2019-06-08T13:01:34.925Z,1001.96
2019-06-08T13:03:38.366Z,1002.02
2019-06-08T13:05:41.211Z,1002.06
2019-06-08T13:07:43.950Z,1002.13
2019-06-08T13:09:48.865Z,1002.18
2019-06-08T13:11:51.787Z,1002.15
2019-06-08T13:13:54.918Z,1002.13
2019-06-08T13:15:58.606Z,1002.12
2019-06-08T13:18:01.496Z,1002.12
2019-06-08T13:20:04.391Z,1002.13
2019-06-08T13:22:07.255Z,1002.15
2019-06-08T13:24:13.043Z,1002.17
2019-06-08T13:26:31.062Z,1002.2
2019-06-08T13:28:34.039Z,1002.12
2019-06-08T13:30:39.520Z,1002.07
2019-06-08T13:32:42.363Z,1002.17
2019-06-08T13:34:50.417Z,1002.18
2019-06-08T13:36:53.257Z,1002.25
2019-06-08T13:38:56.027Z,1002.26
2019-06-08T13:40:59.458Z,1002.27
2019-06-08T13:43:02.313Z,1002.31
2019-06-08T13:45:07.784Z,1002.34
2019-06-08T13:47:14.385Z,1002.25
2019-06-08T13:49:30.886Z,1002.26
2019-06-08T13:51:33.836Z,1002.2
2019-06-08T13:53:38.958Z,1002.18
2019-06-08T13:55:57.172Z,1002.15
2019-06-08T13:57:59.978Z,1002.14
2019-06-08T14:00:02.848Z,1002.09
2019-06-08T14:02:05.742Z,1002.09
2019-06-08T14:04:09.541Z,1002.06
2019-06-08T14:06:12.336Z,1002.07
2019-06-08T14:08:16.393Z,1002.09
2019-06-08T14:10:25.592Z,1002.06
2019-06-08T14:12:31.325Z,1002.03
2019-06-08T14:14:34.405Z,1002.09
2019-06-08T14:16:39.493Z,1002.16
2019-06-08T14:18:42.381Z,1002.21
2019-06-08T14:20:45.279Z,1002.29
2019-06-08T14:22:50.985Z,1002.39
2019-06-08T14:24:53.809Z,1002.35
2019-06-08T14:26:58.947Z,1002.39
2019-06-08T14:29:02.296Z,1002.41
2019-06-08T14:31:05.206Z,1002.38
2019-06-08T14:33:08.849Z,1002.39
2019-06-08T14:35:11.662Z,1002.41
2019-06-08T14:37:14.471Z,1002.43
2019-06-08T14:39:22.829Z,1002.39
2019-06-08T14:41:31.878Z,1002.37
2019-06-08T14:43:34.725Z,1002.33
2019-06-08T14:45:38.420Z,1002.28
2019-06-08T14:47:41.290Z,1002.22
2019-06-08T14:49:44.204Z,1002.25
2019-06-08T14:51:48.436Z,1002.24
2019-06-08T14:53:51.973Z,1002.19
2019-06-08T14:56:09.398Z,1002.18
2019-06-08T14:58:12.306Z,1002.18
2019-06-08T15:00:15.212Z,1002.2
2019-06-08T15:02:21.090Z,1002.14
2019-06-08T15:04:39.844Z,1002.18
2019-06-08T15:06:43.205Z,1002.17
2019-06-08T15:08:50.726Z,1002.19
2019-06-08T15:10:53.592Z,1002.16
2019-06-08T15:12:58.400Z,1002.23
2019-06-08T15:15:01.215Z,1002.24
2019-06-08T15:17:04.275Z,1002.28
2019-06-08T15:19:08.649Z,1002.28
2019-06-08T15:21:11.441Z,1002.32
2019-06-08T15:23:23.204Z,1002.37
2019-06-08T15:25:33.074Z,1002.41
2019-06-08T15:27:35.924Z,1002.42
2019-06-08T15:29:38.683Z,1002.43
2019-06-08T15:31:41.456Z,1002.43
2019-06-08T15:33:44.269Z,1002.43
2019-06-08T15:35:48.185Z,1002.46
2019-06-08T15:37:51.084Z,1002.4
2019-06-08T15:39:53.925Z,1002.38
2019-06-08T15:42:00.676Z,1002.38
2019-06-08T15:44:03.550Z,1002.39
2019-06-08T15:46:09.086Z,1002.4
2019-06-08T15:48:11.893Z,1002.44
2019-06-08T15:50:14.662Z,1002.45
2019-06-08T15:54:20.957Z,1002.49
2019-06-08T15:56:52.161Z,1002.49
2019-06-08T16:25:39.307Z,1002.73
2019-06-08T16:27:42.072Z,1002.77
2019-06-08T16:29:44.894Z,1002.7
2019-06-08T16:31:47.733Z,1002.71
2019-06-08T16:33:50.951Z,1002.7
2019-06-08T16:35:53.781Z,1002.66
2019-06-08T16:37:56.691Z,1002.67
2019-06-08T16:39:59.512Z,1002.68
2019-06-08T16:42:02.746Z,1002.68
2019-06-08T16:44:07.859Z,1002.71
2019-06-08T16:46:10.675Z,1002.7
2019-06-08T16:48:13.491Z,1002.74
2019-06-08T16:50:25.519Z,1002.78
2019-06-08T16:52:29.023Z,1002.84
2019-06-08T16:54:33.334Z,1002.9
2019-06-08T16:56:37.199Z,1003.02
2019-06-08T16:58:40.038Z,1003.1
2019-06-08T17:00:43.008Z,1003.16
2019-06-08T17:15:02.727Z,1003.83
2019-06-08T17:27:27.669Z,1004.04
2019-06-08T17:29:31.240Z,1003.98
2019-06-08T17:31:37.133Z,1003.89
2019-06-08T17:33:41.412Z,1003.85
2019-06-08T17:35:44.309Z,1003.89
2019-06-08T17:37:47.253Z,1003.94
2019-06-08T17:39:50.044Z,1003.95
2019-06-08T17:41:52.771Z,1003.89
2019-06-08T17:43:55.489Z,1003.87
2019-06-08T17:45:58.616Z,1003.89
2019-06-08T17:48:01.457Z,1003.87
2019-06-08T17:50:04.244Z,1003.91
2019-06-08T17:52:07.038Z,1003.9
2019-06-08T17:54:09.774Z,1003.9
2019-06-08T17:56:12.682Z,1003.89
2019-06-08T17:58:15.513Z,1003.86
2019-06-08T18:00:18.574Z,1003.85
2019-06-08T18:02:31.925Z,1003.85
2019-06-08T18:04:41.033Z,1003.85
2019-06-08T18:06:47.522Z,1003.85
2019-06-08T18:08:50.598Z,1003.85
2019-06-08T18:10:53.422Z,1003.87
2019-06-08T18:12:59.306Z,1003.85
2019-06-08T18:15:02.261Z,1003.88
2019-06-08T18:17:05.113Z,1003.91
2019-06-08T18:19:08.650Z,1003.94
2019-06-08T18:21:11.543Z,1003.98
2019-06-08T18:23:14.363Z,1003.98
2019-06-08T18:25:18.027Z,1004
2019-06-08T18:27:20.783Z,1004.02
2019-06-08T18:29:23.509Z,1004
2019-06-08T18:31:28.165Z,1004
2019-06-08T18:33:30.938Z,1004
2019-06-08T18:35:41.609Z,1003.99
2019-06-08T18:37:49.091Z,1004.01
2019-06-08T18:39:51.883Z,1004.06
2019-06-08T18:41:54.668Z,1004.05
2019-06-08T18:43:58.928Z,1004.06
2019-06-08T18:46:01.735Z,1004.1
2019-06-08T18:48:04.479Z,1004.1
2019-06-08T18:50:09.415Z,1004.09
2019-06-08T18:52:12.274Z,1004.08
2019-06-08T18:54:19.296Z,1004.07
2019-06-08T18:56:22.069Z,1004.07
2019-06-08T18:58:28.165Z,1004.09
2019-06-08T19:00:31.045Z,1004.12
2019-06-08T19:02:34.011Z,1004.09
2019-06-08T19:04:42.861Z,1004.13
2019-06-08T19:06:45.870Z,1004.17
2019-06-08T19:08:51.343Z,1004.19
2019-06-08T19:10:54.153Z,1004.2
2019-06-08T19:12:57.012Z,1004.25
2019-06-08T19:14:59.882Z,1004.28
2019-06-08T19:17:04.129Z,1004.33
2019-06-08T19:19:07.967Z,1004.36
2019-06-08T19:21:11.109Z,1004.39
2019-06-08T19:23:14.014Z,1004.43
2019-06-08T19:25:18.147Z,1004.42
2019-06-08T19:27:21.083Z,1004.44
2019-06-08T19:29:23.859Z,1004.42
2019-06-08T19:31:28.230Z,1004.43
2019-06-08T19:33:31.097Z,1004.47
2019-06-08T19:35:35.397Z,1004.53
2019-06-08T19:37:38.227Z,1004.55
2019-06-08T19:39:49.239Z,1004.58
2019-06-08T19:41:52.148Z,1004.62
2019-06-08T19:43:58.191Z,1004.67
2019-06-08T19:46:01.206Z,1004.64
2019-06-08T19:48:03.952Z,1004.67
2019-06-08T19:50:08.498Z,1004.67
2019-06-08T19:52:11.278Z,1004.68
2019-06-08T19:54:14.442Z,1004.69
2019-06-08T19:56:21.580Z,1004.7
2019-06-08T19:58:28.160Z,1004.72
2019-06-08T20:00:31.089Z,1004.7
2019-06-08T20:02:33.824Z,1004.7
2019-06-08T20:04:39.072Z,1004.68
2019-06-08T20:06:43.037Z,1004.68
2019-06-08T20:08:51.436Z,1004.67
2019-06-08T20:10:54.265Z,1004.67
2019-06-08T20:12:58.274Z,1004.7
2019-06-08T20:15:01.452Z,1004.73
2019-06-08T20:17:04.267Z,1004.78
2019-06-08T20:19:08.642Z,1004.8
2019-06-08T20:21:11.497Z,1004.81
2019-06-08T20:23:14.588Z,1004.83
2019-06-08T20:25:18.336Z,1004.81
2019-06-08T20:27:21.588Z,1004.85
2019-06-08T20:29:24.393Z,1004.89
2019-06-08T20:31:27.902Z,1004.95
2019-06-08T20:33:30.631Z,1004.94
2019-06-08T20:35:33.343Z,1004.95
2019-06-08T20:37:38.543Z,1004.98
2019-06-08T20:40:14.027Z,1004.94
2019-06-08T20:42:17.949Z,1004.95
2019-06-08T20:44:20.709Z,1004.99
2019-06-08T20:46:23.549Z,1004.99
2019-06-08T20:48:28.093Z,1004.99
2019-06-08T20:50:30.981Z,1005.01
2019-06-08T20:52:33.788Z,1005.03
2019-06-08T20:54:37.451Z,1005.05
2019-06-08T20:56:40.284Z,1005.08
2019-06-08T20:58:43.737Z,1005.08
2019-06-08T21:00:52.706Z,1005.12
2019-06-08T21:03:03.573Z,1005.15
2019-06-08T21:05:08.439Z,1005.19
2019-06-08T21:07:11.274Z,1005.2
2019-06-08T21:09:14.070Z,1005.23
2019-06-08T21:11:18.168Z,1005.24
2019-06-08T21:13:20.981Z,1005.25
2019-06-08T21:15:23.848Z,1005.26
2019-06-08T21:17:28.150Z,1005.25
2019-06-08T21:19:30.983Z,1005.27
2019-06-08T21:21:33.804Z,1005.28
2019-06-08T21:23:36.584Z,1005.28
2019-06-08T21:25:39.547Z,1005.27
2019-06-08T21:27:42.359Z,1005.3
2019-06-08T21:30:12.413Z,1005.3
2019-06-08T21:32:22.338Z,1005.3
2019-06-08T21:34:25.061Z,1005.3
2019-06-08T21:36:27.863Z,1005.29
2019-06-08T21:38:30.582Z,1005.27
2019-06-08T21:40:33.360Z,1005.27
2019-06-08T21:42:37.648Z,1005.32
2019-06-08T21:44:40.386Z,1005.3
2019-06-08T21:53:02.003Z,1005.29
2019-06-08T21:57:10.111Z,1005.29
2019-06-08T22:23:53.647Z,1005.35
2019-06-08T22:26:01.400Z,1005.36
2019-06-08T22:28:07.019Z,1005.36
2019-06-08T22:30:42.639Z,1005.34
2019-06-08T22:32:48.020Z,1005.35
2019-06-08T22:34:53.382Z,1005.32
2019-06-08T22:37:00.712Z,1005.33
2019-06-08T22:39:04.381Z,1005.34
2019-06-08T22:41:08.686Z,1005.35
2019-06-08T22:43:11.581Z,1005.32
2019-06-08T22:45:14.358Z,1005.31
2019-06-08T22:47:19.067Z,1005.32
2019-06-08T22:49:21.919Z,1005.31
2019-06-08T22:51:24.735Z,1005.29
2019-06-08T22:53:28.286Z,1005.32
2019-06-08T22:55:31.126Z,1005.31
2019-06-08T22:57:33.929Z,1005.32
2019-06-08T22:59:37.729Z,1005.31
2019-06-08T23:01:40.472Z,1005.28
2019-06-08T23:03:43.306Z,1005.26
2019-06-08T23:05:48.170Z,1005.24
2019-06-08T23:07:51.055Z,1005.25
2019-06-08T23:10:02.899Z,1005.28
2019-06-08T23:12:09.940Z,1005.3
2019-06-08T23:14:14.076Z,1005.3
2019-06-08T23:16:18.703Z,1005.28
2019-06-08T23:18:21.486Z,1005.27
2019-06-08T23:20:24.256Z,1005.27
2019-06-08T23:22:27.911Z,1005.28
2019-06-08T23:24:30.721Z,1005.3
2019-06-08T23:26:33.580Z,1005.34
2019-06-08T23:28:38.320Z,1005.35
2019-06-08T23:30:41.156Z,1005.38
2019-06-08T23:32:43.883Z,1005.35
2019-06-08T23:34:48.387Z,1005.36
2019-06-08T23:37:05.947Z,1005.34
